sensor_id;sensor_type;location;lat;lon;timestamp;temperature;humidity
5174;DHT22;2606;50.934;6.934;2022-07-18T00:00:38;22.60;49.00
5174;DHT22;2606;50.934;6.934;2022-07-18T00:03:04;22.60;49.30
5174;DHT22;2606;50.934;6.934;2022-07-18T00:05:29;22.50;49.50
5174;DHT22;2606;50.934;6.934;2022-07-18T00:07:55;22.40;49.60
5174;DHT22;2606;50.934;6.934;2022-07-18T00:10:20;22.40;49.90
5174;DHT22;2606;50.934;6.934;2022-07-18T00:12:46;22.40;50.20
5174;DHT22;2606;50.934;6.934;2022-07-18T00:15:12;22.30;50.30
5174;DHT22;2606;50.934;6.934;2022-07-18T00:17:37;22.30;50.50
5174;DHT22;2606;50.934;6.934;2022-07-18T00:20:06;22.20;50.70
5174;DHT22;2606;50.934;6.934;2022-07-18T00:22:32;22.20;50.90
5174;DHT22;2606;50.934;6.934;2022-07-18T00:24:57;22.10;51.00
5174;DHT22;2606;50.934;6.934;2022-07-18T00:27:23;22.10;51.20
5174;DHT22;2606;50.934;6.934;2022-07-18T00:29:48;22.00;51.20
5174;DHT22;2606;50.934;6.934;2022-07-18T00:32:14;22.10;51.40
5174;DHT22;2606;50.934;6.934;2022-07-18T00:34:40;22.00;51.50
5174;DHT22;2606;50.934;6.934;2022-07-18T00:37:05;22.00;51.70
5174;DHT22;2606;50.934;6.934;2022-07-18T00:39:31;21.90;51.70
5174;DHT22;2606;50.934;6.934;2022-07-18T00:41:56;21.90;51.90
5174;DHT22;2606;50.934;6.934;2022-07-18T00:44:25;21.90;52.10
5174;DHT22;2606;50.934;6.934;2022-07-18T00:46:52;21.90;52.30
5174;DHT22;2606;50.934;6.934;2022-07-18T00:49:18;21.80;52.40
5174;DHT22;2606;50.934;6.934;2022-07-18T00:51:44;21.80;52.60
5174;DHT22;2606;50.934;6.934;2022-07-18T00:54:10;21.80;52.70
5174;DHT22;2606;50.934;6.934;2022-07-18T00:56:36;21.80;52.90
5174;DHT22;2606;50.934;6.934;2022-07-18T00:59:02;21.80;53.10
5174;DHT22;2606;50.934;6.934;2022-07-18T01:01:28;21.70;53.30
5174;DHT22;2606;50.934;6.934;2022-07-18T01:04:21;21.70;53.50
5174;DHT22;2606;50.934;6.934;2022-07-18T01:06:47;21.70;53.80
5174;DHT22;2606;50.934;6.934;2022-07-18T01:09:14;21.70;54.10
5174;DHT22;2606;50.934;6.934;2022-07-18T01:11:40;21.70;54.90
5174;DHT22;2606;50.934;6.934;2022-07-18T01:14:07;21.60;54.40
5174;DHT22;2606;50.934;6.934;2022-07-18T01:16:33;21.60;54.60
5174;DHT22;2606;50.934;6.934;2022-07-18T01:18:59;21.50;54.70
5174;DHT22;2606;50.934;6.934;2022-07-18T01:21:25;21.50;54.70
5174;DHT22;2606;50.934;6.934;2022-07-18T01:23:51;21.50;54.90
5174;DHT22;2606;50.934;6.934;2022-07-18T01:26:17;21.40;55.00
5174;DHT22;2606;50.934;6.934;2022-07-18T01:28:44;21.40;55.00
5174;DHT22;2606;50.934;6.934;2022-07-18T01:31:10;21.40;55.30
5174;DHT22;2606;50.934;6.934;2022-07-18T01:33:36;21.30;55.40
5174;DHT22;2606;50.934;6.934;2022-07-18T01:36:02;21.30;55.60
5174;DHT22;2606;50.934;6.934;2022-07-18T01:38:29;21.20;55.80
5174;DHT22;2606;50.934;6.934;2022-07-18T01:40:55;21.20;56.20
5174;DHT22;2606;50.934;6.934;2022-07-18T01:43:22;21.20;56.50
5174;DHT22;2606;50.934;6.934;2022-07-18T01:45:48;21.20;56.70
5174;DHT22;2606;50.934;6.934;2022-07-18T01:48:13;21.10;57.10
5174;DHT22;2606;50.934;6.934;2022-07-18T01:50:39;21.10;57.30
5174;DHT22;2606;50.934;6.934;2022-07-18T01:53:05;21.10;57.70
5174;DHT22;2606;50.934;6.934;2022-07-18T01:55:30;21.10;57.90
5174;DHT22;2606;50.934;6.934;2022-07-18T01:57:56;21.00;58.00
5174;DHT22;2606;50.934;6.934;2022-07-18T02:00:22;21.00;58.20
5174;DHT22;2606;50.934;6.934;2022-07-18T02:02:47;21.00;58.40
5174;DHT22;2606;50.934;6.934;2022-07-18T02:05:13;20.90;58.50
5174;DHT22;2606;50.934;6.934;2022-07-18T02:07:40;20.90;58.70
5174;DHT22;2606;50.934;6.934;2022-07-18T02:10:11;20.90;58.90
5174;DHT22;2606;50.934;6.934;2022-07-18T02:12:38;20.80;59.00
5174;DHT22;2606;50.934;6.934;2022-07-18T02:15:05;20.80;59.40
5174;DHT22;2606;50.934;6.934;2022-07-18T02:17:31;20.80;59.60
5174;DHT22;2606;50.934;6.934;2022-07-18T02:19:57;20.80;59.90
5174;DHT22;2606;50.934;6.934;2022-07-18T02:22:23;20.70;60.00
5174;DHT22;2606;50.934;6.934;2022-07-18T02:24:50;20.70;60.30
5174;DHT22;2606;50.934;6.934;2022-07-18T02:27:15;20.70;60.60
5174;DHT22;2606;50.934;6.934;2022-07-18T02:29:41;20.60;60.70
5174;DHT22;2606;50.934;6.934;2022-07-18T02:32:06;20.60;61.00
5174;DHT22;2606;50.934;6.934;2022-07-18T02:34:32;20.60;61.10
5174;DHT22;2606;50.934;6.934;2022-07-18T02:36:58;20.50;61.30
5174;DHT22;2606;50.934;6.934;2022-07-18T02:39:23;20.50;61.40
5174;DHT22;2606;50.934;6.934;2022-07-18T02:41:49;20.50;61.80
5174;DHT22;2606;50.934;6.934;2022-07-18T02:44:14;20.40;62.00
5174;DHT22;2606;50.934;6.934;2022-07-18T02:46:40;20.40;62.40
5174;DHT22;2606;50.934;6.934;2022-07-18T02:49:06;20.30;62.80
5174;DHT22;2606;50.934;6.934;2022-07-18T02:51:32;20.30;63.40
5174;DHT22;2606;50.934;6.934;2022-07-18T02:53:57;20.20;63.90
5174;DHT22;2606;50.934;6.934;2022-07-18T02:56:23;20.10;64.30
5174;DHT22;2606;50.934;6.934;2022-07-18T02:58:48;20.10;65.00
5174;DHT22;2606;50.934;6.934;2022-07-18T03:01:14;20.00;65.20
5174;DHT22;2606;50.934;6.934;2022-07-18T03:03:39;20.00;65.70
5174;DHT22;2606;50.934;6.934;2022-07-18T03:06:05;19.90;66.10
5174;DHT22;2606;50.934;6.934;2022-07-18T03:08:31;19.90;66.50
5174;DHT22;2606;50.934;6.934;2022-07-18T03:10:57;19.90;66.70
5174;DHT22;2606;50.934;6.934;2022-07-18T03:13:22;19.80;67.10
5174;DHT22;2606;50.934;6.934;2022-07-18T03:15:48;19.80;67.60
5174;DHT22;2606;50.934;6.934;2022-07-18T03:18:13;19.70;68.00
5174;DHT22;2606;50.934;6.934;2022-07-18T03:20:39;19.70;68.30
5174;DHT22;2606;50.934;6.934;2022-07-18T03:23:06;19.70;68.90
5174;DHT22;2606;50.934;6.934;2022-07-18T03:25:32;19.60;69.30
5174;DHT22;2606;50.934;6.934;2022-07-18T03:27:57;19.60;69.90
5174;DHT22;2606;50.934;6.934;2022-07-18T03:30:23;19.50;70.10
5174;DHT22;2606;50.934;6.934;2022-07-18T03:32:48;19.50;70.50
5174;DHT22;2606;50.934;6.934;2022-07-18T03:35:14;19.50;71.00
5174;DHT22;2606;50.934;6.934;2022-07-18T03:37:40;19.50;71.40
5174;DHT22;2606;50.934;6.934;2022-07-18T03:40:06;19.40;72.80
5174;DHT22;2606;50.934;6.934;2022-07-18T03:42:32;19.30;72.70
5174;DHT22;2606;50.934;6.934;2022-07-18T03:44:59;19.30;73.00
5174;DHT22;2606;50.934;6.934;2022-07-18T03:47:24;19.30;73.40
5174;DHT22;2606;50.934;6.934;2022-07-18T03:49:50;19.30;73.80
5174;DHT22;2606;50.934;6.934;2022-07-18T03:52:15;19.30;74.50
5174;DHT22;2606;50.934;6.934;2022-07-18T03:54:41;19.20;74.70
5174;DHT22;2606;50.934;6.934;2022-07-18T03:57:06;19.20;74.90
5174;DHT22;2606;50.934;6.934;2022-07-18T03:59:32;19.20;75.20
5174;DHT22;2606;50.934;6.934;2022-07-18T04:01:58;19.10;75.40
5174;DHT22;2606;50.934;6.934;2022-07-18T04:04:24;19.20;75.90
5174;DHT22;2606;50.934;6.934;2022-07-18T04:06:50;19.10;76.00
5174;DHT22;2606;50.934;6.934;2022-07-18T04:09:15;19.10;76.30
5174;DHT22;2606;50.934;6.934;2022-07-18T04:11:41;19.10;76.70
5174;DHT22;2606;50.934;6.934;2022-07-18T04:14:06;19.10;76.90
5174;DHT22;2606;50.934;6.934;2022-07-18T04:16:32;19.00;77.20
5174;DHT22;2606;50.934;6.934;2022-07-18T04:18:57;19.00;77.50
5174;DHT22;2606;50.934;6.934;2022-07-18T04:21:23;19.00;78.00
5174;DHT22;2606;50.934;6.934;2022-07-18T04:23:49;19.00;78.20
5174;DHT22;2606;50.934;6.934;2022-07-18T04:26:14;19.00;78.40
5174;DHT22;2606;50.934;6.934;2022-07-18T04:28:40;19.00;78.50
5174;DHT22;2606;50.934;6.934;2022-07-18T04:31:05;19.00;79.00
5174;DHT22;2606;50.934;6.934;2022-07-18T04:33:31;19.00;79.20
5174;DHT22;2606;50.934;6.934;2022-07-18T04:35:57;19.00;79.40
5174;DHT22;2606;50.934;6.934;2022-07-18T04:38:22;19.00;79.90
5174;DHT22;2606;50.934;6.934;2022-07-18T04:40:48;19.00;80.60
5174;DHT22;2606;50.934;6.934;2022-07-18T04:43:13;19.10;81.80
5174;DHT22;2606;50.934;6.934;2022-07-18T04:45:39;19.10;83.00
5174;DHT22;2606;50.934;6.934;2022-07-18T04:48:06;19.10;83.20
5174;DHT22;2606;50.934;6.934;2022-07-18T04:50:33;19.10;83.30
5174;DHT22;2606;50.934;6.934;2022-07-18T04:52:58;19.10;82.00
5174;DHT22;2606;50.934;6.934;2022-07-18T04:55:25;19.10;82.30
5174;DHT22;2606;50.934;6.934;2022-07-18T04:57:51;19.10;82.30
5174;DHT22;2606;50.934;6.934;2022-07-18T05:00:23;19.10;82.00
5174;DHT22;2606;50.934;6.934;2022-07-18T05:02:51;19.10;81.90
5174;DHT22;2606;50.934;6.934;2022-07-18T05:05:17;19.10;82.20
5174;DHT22;2606;50.934;6.934;2022-07-18T05:07:44;19.20;81.60
5174;DHT22;2606;50.934;6.934;2022-07-18T05:10:12;19.20;81.40
5174;DHT22;2606;50.934;6.934;2022-07-18T05:12:40;19.20;80.40
5174;DHT22;2606;50.934;6.934;2022-07-18T05:15:07;19.20;79.90
5174;DHT22;2606;50.934;6.934;2022-07-18T05:17:33;19.30;79.80
5174;DHT22;2606;50.934;6.934;2022-07-18T05:19:59;19.30;79.80
5174;DHT22;2606;50.934;6.934;2022-07-18T05:22:25;19.30;79.50
5174;DHT22;2606;50.934;6.934;2022-07-18T05:24:50;19.40;79.30
5174;DHT22;2606;50.934;6.934;2022-07-18T05:27:16;19.40;78.60
5174;DHT22;2606;50.934;6.934;2022-07-18T05:29:42;19.50;78.20
5174;DHT22;2606;50.934;6.934;2022-07-18T05:32:08;19.60;78.10
5174;DHT22;2606;50.934;6.934;2022-07-18T05:34:33;19.60;77.10
5174;DHT22;2606;50.934;6.934;2022-07-18T05:36:59;19.70;76.90
5174;DHT22;2606;50.934;6.934;2022-07-18T05:39:25;19.70;76.30
5174;DHT22;2606;50.934;6.934;2022-07-18T05:41:52;19.90;76.10
5174;DHT22;2606;50.934;6.934;2022-07-18T05:44:18;19.90;74.80
5174;DHT22;2606;50.934;6.934;2022-07-18T05:46:48;20.00;74.50
5174;DHT22;2606;50.934;6.934;2022-07-18T05:49:15;20.00;74.30
5174;DHT22;2606;50.934;6.934;2022-07-18T05:51:41;20.10;74.10
5174;DHT22;2606;50.934;6.934;2022-07-18T05:54:06;20.20;73.70
5174;DHT22;2606;50.934;6.934;2022-07-18T05:56:32;20.20;73.40
5174;DHT22;2606;50.934;6.934;2022-07-18T05:58:58;20.30;73.00
5174;DHT22;2606;50.934;6.934;2022-07-18T06:01:23;20.40;72.90
5174;DHT22;2606;50.934;6.934;2022-07-18T06:03:49;20.50;72.50
5174;DHT22;2606;50.934;6.934;2022-07-18T06:06:15;20.50;71.70
5174;DHT22;2606;50.934;6.934;2022-07-18T06:08:41;20.60;70.90
5174;DHT22;2606;50.934;6.934;2022-07-18T06:11:07;20.60;69.90
5174;DHT22;2606;50.934;6.934;2022-07-18T06:13:39;20.70;69.50
5174;DHT22;2606;50.934;6.934;2022-07-18T06:16:06;20.80;69.00
5174;DHT22;2606;50.934;6.934;2022-07-18T06:18:32;20.80;68.50
5174;DHT22;2606;50.934;6.934;2022-07-18T06:21:02;20.90;68.30
5174;DHT22;2606;50.934;6.934;2022-07-18T06:23:28;21.00;67.90
5174;DHT22;2606;50.934;6.934;2022-07-18T06:25:55;21.10;68.10
5174;DHT22;2606;50.934;6.934;2022-07-18T06:28:21;21.10;68.10
5174;DHT22;2606;50.934;6.934;2022-07-18T06:30:47;21.30;67.20
5174;DHT22;2606;50.934;6.934;2022-07-18T06:33:12;21.40;67.00
5174;DHT22;2606;50.934;6.934;2022-07-18T06:35:39;21.50;66.90
5174;DHT22;2606;50.934;6.934;2022-07-18T06:38:05;21.60;66.40
5174;DHT22;2606;50.934;6.934;2022-07-18T06:40:31;21.70;66.00
5174;DHT22;2606;50.934;6.934;2022-07-18T06:42:57;21.80;65.70
5174;DHT22;2606;50.934;6.934;2022-07-18T06:45:22;21.90;65.40
5174;DHT22;2606;50.934;6.934;2022-07-18T06:47:48;22.00;65.10
5174;DHT22;2606;50.934;6.934;2022-07-18T06:50:14;22.20;65.00
5174;DHT22;2606;50.934;6.934;2022-07-18T06:52:41;22.30;64.60
5174;DHT22;2606;50.934;6.934;2022-07-18T06:55:08;22.40;63.80
5174;DHT22;2606;50.934;6.934;2022-07-18T06:57:35;22.60;63.40
5174;DHT22;2606;50.934;6.934;2022-07-18T07:00:00;22.80;62.80
5174;DHT22;2606;50.934;6.934;2022-07-18T07:02:26;23.00;62.00
5174;DHT22;2606;50.934;6.934;2022-07-18T07:04:52;23.10;61.50
5174;DHT22;2606;50.934;6.934;2022-07-18T07:07:17;23.30;61.20
5174;DHT22;2606;50.934;6.934;2022-07-18T07:09:44;23.30;60.50
5174;DHT22;2606;50.934;6.934;2022-07-18T07:12:09;23.40;60.50
5174;DHT22;2606;50.934;6.934;2022-07-18T07:14:36;23.50;59.80
5174;DHT22;2606;50.934;6.934;2022-07-18T07:17:01;23.50;59.20
5174;DHT22;2606;50.934;6.934;2022-07-18T07:19:27;23.50;59.10
5174;DHT22;2606;50.934;6.934;2022-07-18T07:21:53;23.60;58.70
5174;DHT22;2606;50.934;6.934;2022-07-18T07:24:19;23.60;58.40
5174;DHT22;2606;50.934;6.934;2022-07-18T07:26:44;23.60;58.10
5174;DHT22;2606;50.934;6.934;2022-07-18T07:29:10;23.70;58.00
5174;DHT22;2606;50.934;6.934;2022-07-18T07:31:35;23.70;57.70
5174;DHT22;2606;50.934;6.934;2022-07-18T07:34:01;23.80;57.70
5174;DHT22;2606;50.934;6.934;2022-07-18T07:36:26;23.80;57.70
5174;DHT22;2606;50.934;6.934;2022-07-18T07:38:52;23.90;57.70
5174;DHT22;2606;50.934;6.934;2022-07-18T07:41:17;23.90;57.50
5174;DHT22;2606;50.934;6.934;2022-07-18T07:43:43;24.00;57.60
5174;DHT22;2606;50.934;6.934;2022-07-18T07:46:09;24.10;57.60
5174;DHT22;2606;50.934;6.934;2022-07-18T07:48:36;24.30;57.40
5174;DHT22;2606;50.934;6.934;2022-07-18T07:51:01;24.30;57.30
5174;DHT22;2606;50.934;6.934;2022-07-18T07:53:29;24.40;56.90
5174;DHT22;2606;50.934;6.934;2022-07-18T07:55:54;24.40;57.10
5174;DHT22;2606;50.934;6.934;2022-07-18T07:58:20;24.50;56.80
5174;DHT22;2606;50.934;6.934;2022-07-18T08:00:46;24.50;56.60
5174;DHT22;2606;50.934;6.934;2022-07-18T08:03:11;24.60;56.40
5174;DHT22;2606;50.934;6.934;2022-07-18T08:05:43;24.60;56.20
5174;DHT22;2606;50.934;6.934;2022-07-18T08:08:08;24.70;56.20
5174;DHT22;2606;50.934;6.934;2022-07-18T08:10:34;24.70;56.20
5174;DHT22;2606;50.934;6.934;2022-07-18T08:13:00;24.70;56.30
5174;DHT22;2606;50.934;6.934;2022-07-18T08:15:26;24.70;56.20
5174;DHT22;2606;50.934;6.934;2022-07-18T08:17:52;24.80;56.20
5174;DHT22;2606;50.934;6.934;2022-07-18T08:20:18;24.90;56.30
5174;DHT22;2606;50.934;6.934;2022-07-18T08:22:58;24.90;55.90
5174;DHT22;2606;50.934;6.934;2022-07-18T08:25:24;25.00;55.80
5174;DHT22;2606;50.934;6.934;2022-07-18T08:27:50;25.10;56.00
5174;DHT22;2606;50.934;6.934;2022-07-18T08:30:16;25.20;55.90
5174;DHT22;2606;50.934;6.934;2022-07-18T08:32:42;25.30;55.90
5174;DHT22;2606;50.934;6.934;2022-07-18T08:35:08;25.40;55.70
5174;DHT22;2606;50.934;6.934;2022-07-18T08:37:33;25.60;55.20
5174;DHT22;2606;50.934;6.934;2022-07-18T08:39:59;25.70;55.00
5174;DHT22;2606;50.934;6.934;2022-07-18T08:42:26;25.70;54.60
5174;DHT22;2606;50.934;6.934;2022-07-18T08:44:56;25.90;54.00
5174;DHT22;2606;50.934;6.934;2022-07-18T08:47:22;25.90;54.00
5174;DHT22;2606;50.934;6.934;2022-07-18T08:49:49;25.90;53.70
5174;DHT22;2606;50.934;6.934;2022-07-18T08:52:15;26.00;53.40
5174;DHT22;2606;50.934;6.934;2022-07-18T08:54:41;26.10;53.10
5174;DHT22;2606;50.934;6.934;2022-07-18T08:57:06;26.20;53.10
5174;DHT22;2606;50.934;6.934;2022-07-18T08:59:32;26.30;52.80
5174;DHT22;2606;50.934;6.934;2022-07-18T09:01:57;26.30;52.30
5174;DHT22;2606;50.934;6.934;2022-07-18T09:04:40;26.40;52.50
5174;DHT22;2606;50.934;6.934;2022-07-18T09:07:08;26.50;52.40
5174;DHT22;2606;50.934;6.934;2022-07-18T09:09:35;26.60;52.20
5174;DHT22;2606;50.934;6.934;2022-07-18T09:12:06;26.80;52.00
5174;DHT22;2606;50.934;6.934;2022-07-18T09:14:40;26.80;51.80
5174;DHT22;2606;50.934;6.934;2022-07-18T09:17:22;26.90;50.90
5174;DHT22;2606;50.934;6.934;2022-07-18T09:22:38;27.10;50.70
5174;DHT22;2606;50.934;6.934;2022-07-18T09:25:09;27.30;50.60
5174;DHT22;2606;50.934;6.934;2022-07-18T09:27:39;27.50;50.80
5174;DHT22;2606;50.934;6.934;2022-07-18T09:32:45;27.70;49.50
5174;DHT22;2606;50.934;6.934;2022-07-18T09:35:14;27.80;49.00
5174;DHT22;2606;50.934;6.934;2022-07-18T09:37:40;28.00;47.60
5174;DHT22;2606;50.934;6.934;2022-07-18T09:40:14;28.10;47.30
5174;DHT22;2606;50.934;6.934;2022-07-18T09:42:40;28.20;47.30
5174;DHT22;2606;50.934;6.934;2022-07-18T09:45:06;28.50;46.30
5174;DHT22;2606;50.934;6.934;2022-07-18T09:47:52;28.70;46.60
5174;DHT22;2606;50.934;6.934;2022-07-18T09:50:42;28.90;45.70
5174;DHT22;2606;50.934;6.934;2022-07-18T09:53:16;29.20;45.00
5174;DHT22;2606;50.934;6.934;2022-07-18T09:55:47;29.60;44.70
5174;DHT22;2606;50.934;6.934;2022-07-18T09:58:19;30.00;43.40
5174;DHT22;2606;50.934;6.934;2022-07-18T10:00:45;30.40;42.10
5174;DHT22;2606;50.934;6.934;2022-07-18T10:03:11;30.80;41.30
5174;DHT22;2606;50.934;6.934;2022-07-18T10:05:39;31.00;39.00
5174;DHT22;2606;50.934;6.934;2022-07-18T10:08:11;31.20;37.20
5174;DHT22;2606;50.934;6.934;2022-07-18T10:10:38;31.30;37.30
5174;DHT22;2606;50.934;6.934;2022-07-18T10:13:05;31.50;37.20
5174;DHT22;2606;50.934;6.934;2022-07-18T10:15:34;31.80;37.50
5174;DHT22;2606;50.934;6.934;2022-07-18T10:18:01;32.30;35.30
5174;DHT22;2606;50.934;6.934;2022-07-18T10:20:33;32.70;34.10
5174;DHT22;2606;50.934;6.934;2022-07-18T10:23:06;32.90;33.50
5174;DHT22;2606;50.934;6.934;2022-07-18T10:25:33;33.10;34.10
5174;DHT22;2606;50.934;6.934;2022-07-18T10:28:07;33.50;33.50
5174;DHT22;2606;50.934;6.934;2022-07-18T10:30:34;34.00;32.30
5174;DHT22;2606;50.934;6.934;2022-07-18T10:33:01;34.40;31.40
5174;DHT22;2606;50.934;6.934;2022-07-18T10:36:00;34.80;31.10
5174;DHT22;2606;50.934;6.934;2022-07-18T10:38:26;35.30;29.70
5174;DHT22;2606;50.934;6.934;2022-07-18T10:41:11;35.50;28.70
5174;DHT22;2606;50.934;6.934;2022-07-18T10:43:43;35.80;28.40
5174;DHT22;2606;50.934;6.934;2022-07-18T10:46:10;35.90;28.30
5174;DHT22;2606;50.934;6.934;2022-07-18T10:51:13;36.60;27.70
5174;DHT22;2606;50.934;6.934;2022-07-18T10:59:15;37.40;26.80
5174;DHT22;2606;50.934;6.934;2022-07-18T11:01:55;37.50;26.50
5174;DHT22;2606;50.934;6.934;2022-07-18T11:04:38;37.60;26.50
5174;DHT22;2606;50.934;6.934;2022-07-18T11:07:09;37.70;26.10
5174;DHT22;2606;50.934;6.934;2022-07-18T11:09:44;37.70;26.10
5174;DHT22;2606;50.934;6.934;2022-07-18T11:12:26;37.70;25.70
5174;DHT22;2606;50.934;6.934;2022-07-18T11:23:02;38.40;24.70
5174;DHT22;2606;50.934;6.934;2022-07-18T11:25:29;38.70;24.80
5174;DHT22;2606;50.934;6.934;2022-07-18T11:27:55;38.90;24.70
5174;DHT22;2606;50.934;6.934;2022-07-18T11:30:23;39.10;24.70
5174;DHT22;2606;50.934;6.934;2022-07-18T11:32:49;39.20;24.60
5174;DHT22;2606;50.934;6.934;2022-07-18T11:35:20;39.30;23.90
5174;DHT22;2606;50.934;6.934;2022-07-18T11:37:51;39.50;24.30
5174;DHT22;2606;50.934;6.934;2022-07-18T11:40:17;39.60;24.10
5174;DHT22;2606;50.934;6.934;2022-07-18T11:42:42;39.70;23.80
5174;DHT22;2606;50.934;6.934;2022-07-18T11:45:12;39.70;24.00
5174;DHT22;2606;50.934;6.934;2022-07-18T11:47:52;39.80;24.10
5174;DHT22;2606;50.934;6.934;2022-07-18T11:50:26;40.20;23.80
5174;DHT22;2606;50.934;6.934;2022-07-18T11:52:59;40.20;23.60
5174;DHT22;2606;50.934;6.934;2022-07-18T11:55:35;40.50;23.80
5174;DHT22;2606;50.934;6.934;2022-07-18T11:58:08;40.70;23.20
5174;DHT22;2606;50.934;6.934;2022-07-18T12:00:34;40.70;23.40
5174;DHT22;2606;50.934;6.934;2022-07-18T12:03:12;40.90;23.10
5174;DHT22;2606;50.934;6.934;2022-07-18T12:05:44;40.90;23.30
5174;DHT22;2606;50.934;6.934;2022-07-18T12:11:09;41.40;23.20
5174;DHT22;2606;50.934;6.934;2022-07-18T12:16:28;41.50;22.60
5174;DHT22;2606;50.934;6.934;2022-07-18T12:18:57;41.40;22.90
5174;DHT22;2606;50.934;6.934;2022-07-18T12:21:24;41.50;22.50
5174;DHT22;2606;50.934;6.934;2022-07-18T12:23:50;41.70;22.40
5174;DHT22;2606;50.934;6.934;2022-07-18T12:26:31;41.90;22.60
5174;DHT22;2606;50.934;6.934;2022-07-18T12:29:07;42.10;22.30
5174;DHT22;2606;50.934;6.934;2022-07-18T12:31:44;41.80;22.50
5174;DHT22;2606;50.934;6.934;2022-07-18T12:34:12;41.50;22.50
5174;DHT22;2606;50.934;6.934;2022-07-18T12:36:59;41.40;22.60
5174;DHT22;2606;50.934;6.934;2022-07-18T12:39:31;41.50;22.50
5174;DHT22;2606;50.934;6.934;2022-07-18T12:41:57;41.30;22.50
5174;DHT22;2606;50.934;6.934;2022-07-18T12:44:27;41.50;22.30
5174;DHT22;2606;50.934;6.934;2022-07-18T12:46:54;41.70;22.00
5174;DHT22;2606;50.934;6.934;2022-07-18T12:49:20;42.10;21.70
5174;DHT22;2606;50.934;6.934;2022-07-18T12:51:46;42.50;21.30
5174;DHT22;2606;50.934;6.934;2022-07-18T12:54:12;42.60;21.20
5174;DHT22;2606;50.934;6.934;2022-07-18T12:56:38;42.70;21.30
5174;DHT22;2606;50.934;6.934;2022-07-18T12:59:04;43.00;21.10
5174;DHT22;2606;50.934;6.934;2022-07-18T13:01:31;43.10;21.20
5174;DHT22;2606;50.934;6.934;2022-07-18T13:03:56;43.20;20.90
5174;DHT22;2606;50.934;6.934;2022-07-18T13:06:22;43.40;20.70
5174;DHT22;2606;50.934;6.934;2022-07-18T13:08:48;43.40;20.70
5174;DHT22;2606;50.934;6.934;2022-07-18T13:11:13;43.50;20.60
5174;DHT22;2606;50.934;6.934;2022-07-18T13:13:39;43.70;20.50
5174;DHT22;2606;50.934;6.934;2022-07-18T13:16:05;43.80;20.60
5174;DHT22;2606;50.934;6.934;2022-07-18T13:18:31;43.90;20.70
5174;DHT22;2606;50.934;6.934;2022-07-18T13:20:56;44.00;20.50
5174;DHT22;2606;50.934;6.934;2022-07-18T13:23:22;44.10;20.40
5174;DHT22;2606;50.934;6.934;2022-07-18T13:25:48;43.60;20.70
5174;DHT22;2606;50.934;6.934;2022-07-18T13:28:14;43.30;20.70
5174;DHT22;2606;50.934;6.934;2022-07-18T13:30:39;43.00;20.70
5174;DHT22;2606;50.934;6.934;2022-07-18T13:33:05;42.90;20.90
5174;DHT22;2606;50.934;6.934;2022-07-18T13:35:31;42.70;21.00
5174;DHT22;2606;50.934;6.934;2022-07-18T13:37:57;42.80;21.10
5174;DHT22;2606;50.934;6.934;2022-07-18T13:40:22;42.50;21.00
5174;DHT22;2606;50.934;6.934;2022-07-18T13:42:48;42.50;21.10
5174;DHT22;2606;50.934;6.934;2022-07-18T13:45:13;42.90;21.20
5174;DHT22;2606;50.934;6.934;2022-07-18T13:47:40;43.00;20.80
5174;DHT22;2606;50.934;6.934;2022-07-18T13:50:07;43.40;20.90
5174;DHT22;2606;50.934;6.934;2022-07-18T13:52:33;43.50;20.70
5174;DHT22;2606;50.934;6.934;2022-07-18T13:54:59;43.50;20.40
5174;DHT22;2606;50.934;6.934;2022-07-18T13:57:25;43.90;20.60
5174;DHT22;2606;50.934;6.934;2022-07-18T13:59:50;44.00;20.30
5174;DHT22;2606;50.934;6.934;2022-07-18T14:02:17;44.10;20.00
5174;DHT22;2606;50.934;6.934;2022-07-18T14:04:43;44.30;20.10
5174;DHT22;2606;50.934;6.934;2022-07-18T14:07:09;44.40;20.20
5174;DHT22;2606;50.934;6.934;2022-07-18T14:09:37;44.70;19.90
5174;DHT22;2606;50.934;6.934;2022-07-18T14:12:03;44.80;19.60
5174;DHT22;2606;50.934;6.934;2022-07-18T14:14:29;44.80;19.90
5174;DHT22;2606;50.934;6.934;2022-07-18T14:16:54;45.00;19.80
5174;DHT22;2606;50.934;6.934;2022-07-18T14:19:20;45.30;19.50
5174;DHT22;2606;50.934;6.934;2022-07-18T14:21:46;45.30;19.40
5174;DHT22;2606;50.934;6.934;2022-07-18T14:24:11;45.30;19.50
5174;DHT22;2606;50.934;6.934;2022-07-18T14:26:37;45.10;19.30
5174;DHT22;2606;50.934;6.934;2022-07-18T14:29:03;44.60;19.90
5174;DHT22;2606;50.934;6.934;2022-07-18T14:31:28;44.00;20.10
5174;DHT22;2606;50.934;6.934;2022-07-18T14:33:54;43.60;20.40
5174;DHT22;2606;50.934;6.934;2022-07-18T14:36:19;43.20;20.50
5174;DHT22;2606;50.934;6.934;2022-07-18T14:38:45;43.20;20.50
5174;DHT22;2606;50.934;6.934;2022-07-18T14:41:11;43.40;21.10
5174;DHT22;2606;50.934;6.934;2022-07-18T14:43:37;43.50;20.30
5174;DHT22;2606;50.934;6.934;2022-07-18T14:46:03;43.60;20.40
5174;DHT22;2606;50.934;6.934;2022-07-18T14:48:29;43.30;20.50
5174;DHT22;2606;50.934;6.934;2022-07-18T14:50:55;43.00;21.10
5174;DHT22;2606;50.934;6.934;2022-07-18T14:53:20;43.00;20.70
5174;DHT22;2606;50.934;6.934;2022-07-18T14:55:46;42.90;20.80
5174;DHT22;2606;50.934;6.934;2022-07-18T14:58:11;43.00;20.70
5174;DHT22;2606;50.934;6.934;2022-07-18T15:00:37;42.90;20.50
5174;DHT22;2606;50.934;6.934;2022-07-18T15:03:03;42.90;20.70
5174;DHT22;2606;50.934;6.934;2022-07-18T15:05:28;42.90;20.80
5174;DHT22;2606;50.934;6.934;2022-07-18T15:07:54;42.80;20.90
5174;DHT22;2606;50.934;6.934;2022-07-18T15:10:19;43.00;20.60
5174;DHT22;2606;50.934;6.934;2022-07-18T15:12:45;43.20;20.50
5174;DHT22;2606;50.934;6.934;2022-07-18T15:15:11;43.40;20.20
5174;DHT22;2606;50.934;6.934;2022-07-18T15:17:37;43.60;20.20
5174;DHT22;2606;50.934;6.934;2022-07-18T15:20:04;43.90;20.10
5174;DHT22;2606;50.934;6.934;2022-07-18T15:22:30;44.10;19.90
5174;DHT22;2606;50.934;6.934;2022-07-18T15:24:56;44.30;19.90
5174;DHT22;2606;50.934;6.934;2022-07-18T15:27:21;44.30;19.80
5174;DHT22;2606;50.934;6.934;2022-07-18T15:29:47;44.00;20.00
5174;DHT22;2606;50.934;6.934;2022-07-18T15:32:12;43.80;20.00
5174;DHT22;2606;50.934;6.934;2022-07-18T15:34:38;43.50;20.10
5174;DHT22;2606;50.934;6.934;2022-07-18T15:37:05;43.60;20.30
5174;DHT22;2606;50.934;6.934;2022-07-18T15:39:31;43.90;20.40
5174;DHT22;2606;50.934;6.934;2022-07-18T15:41:57;44.20;20.00
5174;DHT22;2606;50.934;6.934;2022-07-18T15:44:22;44.40;19.80
5174;DHT22;2606;50.934;6.934;2022-07-18T15:46:48;44.60;19.90
5174;DHT22;2606;50.934;6.934;2022-07-18T15:49:14;44.70;19.70
5174;DHT22;2606;50.934;6.934;2022-07-18T15:51:39;44.70;19.50
5174;DHT22;2606;50.934;6.934;2022-07-18T15:54:12;44.90;19.50
5174;DHT22;2606;50.934;6.934;2022-07-18T15:56:38;45.00;19.50
5174;DHT22;2606;50.934;6.934;2022-07-18T15:59:03;45.30;19.60
5174;DHT22;2606;50.934;6.934;2022-07-18T16:01:29;45.50;19.40
5174;DHT22;2606;50.934;6.934;2022-07-18T16:03:55;45.60;19.10
5174;DHT22;2606;50.934;6.934;2022-07-18T16:06:20;45.70;18.90
5174;DHT22;2606;50.934;6.934;2022-07-18T16:08:46;45.40;19.00
5174;DHT22;2606;50.934;6.934;2022-07-18T16:11:11;45.20;19.30
5174;DHT22;2606;50.934;6.934;2022-07-18T16:13:37;45.30;19.40
5174;DHT22;2606;50.934;6.934;2022-07-18T16:16:03;45.40;19.30
5174;DHT22;2606;50.934;6.934;2022-07-18T16:18:28;45.60;19.20
5174;DHT22;2606;50.934;6.934;2022-07-18T16:20:54;45.80;19.30
5174;DHT22;2606;50.934;6.934;2022-07-18T16:23:20;46.00;19.30
5174;DHT22;2606;50.934;6.934;2022-07-18T16:25:45;45.90;18.70
5174;DHT22;2606;50.934;6.934;2022-07-18T16:28:11;45.80;19.10